createdAt,value
2023-01-13T00:19:49.382Z,9.6
2023-01-13T00:29:52.209Z,9.5
2023-01-13T00:39:54.031Z,9.3
2023-01-13T00:49:56.273Z,9.3
2023-01-13T00:59:58.060Z,9.4
2023-01-13T01:09:59.932Z,9.5
2023-01-13T01:20:02.755Z,9.7
2023-01-13T01:30:04.594Z,9.6
2023-01-13T01:40:06.854Z,9.6
2023-01-13T01:50:09.076Z,9.5
2023-01-13T02:00:10.836Z,9.5
2023-01-13T02:10:13.176Z,9.5
2023-01-13T02:20:15.874Z,9.3
2023-01-13T02:30:18.082Z,9.1
2023-01-13T02:50:22.594Z,9
2023-01-13T03:10:27.286Z,9.1
2023-01-13T03:20:29.631Z,8.9
2023-01-13T03:30:31.935Z,8.9
2023-01-13T03:40:34.025Z,8.7
2023-01-13T03:50:36.712Z,8.5
2023-01-13T04:00:39.111Z,8.4
2023-01-13T04:10:41.319Z,8.3
2023-01-13T04:20:43.284Z,8.3
2023-01-13T04:30:45.645Z,8.2
2023-01-13T04:40:47.471Z,8.1
2023-01-13T04:50:49.255Z,8.1
2023-01-13T05:00:51.238Z,8
2023-01-13T05:10:53.550Z,8.1
2023-01-13T05:20:55.321Z,8.1
2023-01-13T05:30:57.556Z,8.1
2023-01-13T05:40:59.777Z,8
2023-01-13T06:01:03.588Z,7.9
2023-01-13T06:11:06.149Z,7.9
2023-01-13T06:21:08.154Z,8
2023-01-13T06:31:09.951Z,8
2023-01-13T06:41:12.280Z,8
2023-01-13T06:51:14.284Z,7.9
2023-01-13T07:01:16.499Z,7.9
2023-01-13T07:11:18.638Z,7.7
2023-01-13T07:21:20.383Z,7.8
2023-01-13T08:11:31.199Z,7.8
2023-01-13T08:21:33.046Z,7.9
2023-01-13T08:51:38.958Z,8.1
2023-01-13T09:01:40.835Z,8.1
2023-01-13T09:11:42.853Z,8.2
2023-01-13T09:21:44.599Z,8.2
2023-01-13T09:31:47.043Z,8.2
2023-01-13T09:41:49.368Z,8.2
2023-01-13T09:51:51.103Z,8.2
2023-01-13T10:01:53.197Z,8.2
2023-01-13T10:11:55.132Z,8.3
2023-01-13T10:21:57.119Z,8.4
2023-01-13T10:42:01.217Z,8.6
2023-01-13T10:52:03.554Z,8.6
2023-01-13T11:02:19.766Z,8.7
2023-01-13T11:12:07.294Z,8.8
2023-01-13T11:22:09.805Z,8.5
2023-01-13T11:32:11.408Z,8.3
2023-01-13T11:42:14.234Z,8.5
2023-01-13T11:52:16.352Z,8.5
2023-01-13T12:02:18.403Z,8.2
2023-01-13T12:12:20.613Z,8.2
2023-01-13T12:22:23.187Z,8
2023-01-13T12:32:25.351Z,6.9
2023-01-13T12:42:27.439Z,7.3
2023-01-13T12:52:29.267Z,7.8
2023-01-13T13:02:31.037Z,8.1
2023-01-13T13:12:32.742Z,8.2
2023-01-13T13:22:35.136Z,8.3
2023-01-13T13:32:37.366Z,8.5
2023-01-13T13:42:39.469Z,8.5
2023-01-13T13:52:41.239Z,6.1
2023-01-13T14:02:43.114Z,5.7
2023-01-13T14:12:45.235Z,6.7
2023-01-13T14:22:47.953Z,7.3
2023-01-13T14:32:50.561Z,7.3
2023-01-13T14:42:52.867Z,7
2023-01-13T14:52:54.778Z,7.1
2023-01-13T15:02:57.278Z,7.1
2023-01-13T15:12:59.060Z,7.1
2023-01-13T15:23:01.762Z,7.1
2023-01-13T15:33:03.495Z,7.1
2023-01-13T15:43:05.952Z,7.1
2023-01-13T15:53:08.350Z,7.1
2023-01-13T16:03:10.764Z,7.2
2023-01-13T16:13:13.273Z,7.2
2023-01-13T16:23:15.296Z,7.3
2023-01-13T16:33:17.800Z,7.4
2023-01-13T16:43:20.012Z,7.4
2023-01-13T16:53:21.913Z,7.5
2023-01-13T17:03:23.909Z,7.6
2023-01-13T17:23:28.682Z,7.7
2023-01-13T17:33:30.666Z,7.6
2023-01-13T17:43:32.539Z,7.7
2023-01-13T17:53:34.906Z,7.8
2023-01-13T18:03:37.469Z,7.7
2023-01-13T18:13:39.985Z,7.5
2023-01-13T18:16:18.414Z,7.5
2023-01-13T18:23:52.140Z,7.4
2023-01-13T18:33:53.997Z,7.4
2023-01-13T18:43:55.929Z,7.3
2023-01-13T18:53:57.854Z,7.2
2023-01-13T19:04:00.401Z,7.3
2023-01-13T19:14:02.453Z,7.6
2023-01-13T19:24:04.223Z,7.7
2023-01-13T19:34:06.840Z,7.7
2023-01-13T19:44:08.786Z,7.3
2023-01-13T19:54:11.147Z,7.1
2023-01-13T20:04:12.811Z,7.1
2023-01-13T20:14:15.084Z,7.2
2023-01-13T20:24:16.786Z,7.4
2023-01-13T20:34:19.244Z,7.5
2023-01-13T20:44:21.914Z,7.5
2023-01-13T20:54:23.926Z,7.6
2023-01-13T21:04:26.222Z,7.6
2023-01-13T21:14:28.795Z,7.5
2023-01-13T21:24:30.630Z,7.5
2023-01-13T21:34:32.671Z,7.2
2023-01-13T21:44:34.527Z,7.1
2023-01-13T21:54:36.566Z,7.1
2023-01-13T22:04:38.386Z,7.1
2023-01-13T22:14:40.485Z,7.2
2023-01-13T22:24:43.227Z,7.2
2023-01-13T22:34:45.496Z,7.2
2023-01-13T22:44:47.926Z,7.1
2023-01-13T23:04:52.524Z,7.3
2023-01-13T23:14:54.442Z,7.3
2023-01-13T23:24:56.522Z,7.3
2023-01-13T23:34:58.521Z,7.5
2023-01-13T23:45:00.221Z,7.5
2023-01-13T23:55:02.161Z,7.4
